createdAt,value
2023-03-23T15:58:23.183Z,67.80
2023-03-23T16:00:52.514Z,68.70
2023-03-23T16:03:22.452Z,69.20
2023-03-23T16:05:51.188Z,70.10
2023-03-23T16:08:19.214Z,70.40
2023-03-23T16:10:47.410Z,70.60
2023-03-23T16:13:15.502Z,71.00
2023-03-23T16:15:45.130Z,71.20
2023-03-23T16:18:17.149Z,71.20
2023-03-23T16:20:45.168Z,71.20
2023-03-23T16:23:13.251Z,71.70
2023-03-23T16:25:41.667Z,72.20
2023-03-23T16:28:11.405Z,72.30
2023-03-23T16:30:39.729Z,72.50
2023-03-23T16:33:09.199Z,72.90
2023-03-23T16:35:38.000Z,73.10
2023-03-23T16:38:08.202Z,72.70
2023-03-23T16:40:37.041Z,73.00
2023-03-23T16:43:08.308Z,73.00
2023-03-23T16:45:37.026Z,73.20
2023-03-23T16:48:05.632Z,73.30
2023-03-23T16:50:36.318Z,73.50
2023-03-23T16:53:04.780Z,73.70
2023-03-23T16:55:33.377Z,74.10
2023-03-23T16:58:15.592Z,74.60
2023-03-23T17:00:45.220Z,75.00
2023-03-23T17:03:13.656Z,75.40
2023-03-23T17:05:43.436Z,75.80
2023-03-23T17:08:11.915Z,76.20
2023-03-23T17:10:41.348Z,76.50
2023-03-23T17:13:09.798Z,77.00
2023-03-23T17:15:38.527Z,77.80
2023-03-23T17:20:35.524Z,78.10
2023-03-23T17:23:05.259Z,78.40
2023-03-23T17:25:33.333Z,78.80
2023-03-23T17:28:05.609Z,79.10
2023-03-23T17:30:35.235Z,79.40
2023-03-23T17:33:03.782Z,79.70
2023-03-23T17:35:31.819Z,79.80
2023-03-23T17:37:59.856Z,80.10
2023-03-23T17:40:29.445Z,80.50
2023-03-23T17:42:57.460Z,80.90
2023-03-23T17:45:25.609Z,81.30
2023-03-23T17:47:53.699Z,81.70
2023-03-23T17:50:21.766Z,81.90
2023-03-23T17:52:49.999Z,82.10
2023-03-23T17:55:18.412Z,82.60
2023-03-23T17:57:47.827Z,82.90
2023-03-23T18:00:16.278Z,83.30
2023-03-23T18:02:44.492Z,83.30
2023-03-23T18:05:12.831Z,83.40
2023-03-23T18:07:41.070Z,83.40
2023-03-23T18:10:13.047Z,83.80
2023-03-23T18:12:41.845Z,84.10
2023-03-23T18:15:11.899Z,84.50
2023-03-23T18:17:39.983Z,84.60
2023-03-23T18:20:08.804Z,84.90
2023-03-23T18:22:36.895Z,84.90
2023-03-23T18:25:05.296Z,85.30
2023-03-23T18:27:33.385Z,85.60
2023-03-23T18:30:02.785Z,85.90
2023-03-23T18:32:32.398Z,86.30
2023-03-23T18:35:00.688Z,86.40
2023-03-23T18:37:29.021Z,86.70
2023-03-23T18:39:57.949Z,86.70
2023-03-23T18:42:26.836Z,86.60
2023-03-23T18:44:55.153Z,86.90
2023-03-23T18:47:23.382Z,87.70
2023-03-23T18:49:55.341Z,87.90
2023-03-23T18:52:26.166Z,87.50
2023-03-23T18:54:54.972Z,87.60
2023-03-23T18:57:23.753Z,87.70
2023-03-23T18:59:52.271Z,87.80
2023-03-23T19:02:21.109Z,87.90
2023-03-23T19:04:49.989Z,88.10
2023-03-23T19:07:22.803Z,88.40
2023-03-23T19:09:51.225Z,88.40
2023-03-23T19:12:19.328Z,88.60
2023-03-23T19:14:47.614Z,88.80
2023-03-23T19:17:15.975Z,88.90
2023-03-23T19:19:44.897Z,88.70
2023-03-23T19:22:13.234Z,89.20
2023-03-23T19:24:42.877Z,90.00
2023-03-23T19:27:11.242Z,90.10
2023-03-23T19:29:39.387Z,90.40
2023-03-23T19:32:07.770Z,90.50
2023-03-23T19:34:36.272Z,90.40
2023-03-23T19:37:06.313Z,90.30
2023-03-23T19:39:41.618Z,90.30
2023-03-23T19:42:12.007Z,90.30
2023-03-23T19:44:41.217Z,90.30
2023-03-23T19:47:12.630Z,90.70
2023-03-23T19:49:41.447Z,90.90
2023-03-23T19:52:12.552Z,91.30
2023-03-23T19:54:42.258Z,91.40
2023-03-23T19:57:12.230Z,91.50
2023-03-23T19:59:40.527Z,91.60
2023-03-23T20:02:08.854Z,91.60
2023-03-23T20:04:37.157Z,91.70
2023-03-23T20:07:07.729Z,91.50
2023-03-23T20:09:36.202Z,91.50
2023-03-23T20:12:05.110Z,91.60
2023-03-23T20:14:34.742Z,91.60
2023-03-23T20:17:03.714Z,91.70
2023-03-23T20:19:34.567Z,91.80
2023-03-23T20:22:04.184Z,92.00
2023-03-23T20:24:32.192Z,92.30
2023-03-23T20:27:03.172Z,92.00
2023-03-23T20:29:33.546Z,92.20
2023-03-23T20:32:03.188Z,92.60
2023-03-23T20:34:31.756Z,92.40
2023-03-23T20:37:00.399Z,92.50
2023-03-23T20:39:30.672Z,92.40
2023-03-23T20:42:00.653Z,92.50
2023-03-23T20:44:31.384Z,92.70
2023-03-23T20:46:59.830Z,92.60
2023-03-23T20:49:30.786Z,92.60
2023-03-23T20:51:59.895Z,92.70
2023-03-23T20:54:28.245Z,93.20
2023-03-23T20:56:58.599Z,93.10
2023-03-23T20:59:27.180Z,93.20
2023-03-23T21:01:55.288Z,93.50
2023-03-23T21:04:27.588Z,93.30
2023-03-23T21:06:57.374Z,93.30
2023-03-23T21:09:25.997Z,93.60
2023-03-23T21:11:54.437Z,93.60
2023-03-23T21:14:22.758Z,93.80
2023-03-23T21:16:51.143Z,93.60
2023-03-23T21:19:20.593Z,93.50
2023-03-23T21:21:55.528Z,93.40
2023-03-23T21:24:28.277Z,93.30
2023-03-23T21:26:58.080Z,93.70
2023-03-23T21:29:27.876Z,93.50
2023-03-23T21:34:28.900Z,93.70
2023-03-23T21:36:57.157Z,93.80
2023-03-23T21:39:27.286Z,94.00
2023-03-23T21:41:55.801Z,94.60
2023-03-23T21:44:24.398Z,94.20
2023-03-23T21:46:54.619Z,94.70
2023-03-23T21:49:23.240Z,94.20
2023-03-23T21:51:51.532Z,94.20
2023-03-23T21:54:21.045Z,94.00
2023-03-23T21:56:51.177Z,94.30
2023-03-23T21:59:19.421Z,94.20
2023-03-23T22:01:48.123Z,94.70
2023-03-23T22:04:17.157Z,95.00
2023-03-23T22:06:45.542Z,94.80
2023-03-23T22:09:13.834Z,95.10
2023-03-23T22:11:42.646Z,95.00
2023-03-23T22:14:12.537Z,95.10
2023-03-23T22:16:40.853Z,95.30
2023-03-23T22:19:09.437Z,95.50
2023-03-23T22:21:37.902Z,95.50
2023-03-23T22:24:06.769Z,95.60
2023-03-23T22:26:35.614Z,95.70
2023-03-23T22:29:04.976Z,95.90
2023-03-23T22:31:36.722Z,96.00
2023-03-23T22:34:04.949Z,95.90
2023-03-23T22:36:34.555Z,96.00
2023-03-23T22:39:04.338Z,96.00
2023-03-23T22:41:34.207Z,96.40
2023-03-23T22:44:02.806Z,96.40
2023-03-23T22:46:31.575Z,96.90
2023-03-23T22:49:01.341Z,97.00
2023-03-23T22:51:29.698Z,96.70
2023-03-23T22:53:57.897Z,96.90
2023-03-23T22:56:26.406Z,97.40
2023-03-23T22:58:54.812Z,97.40
2023-03-23T23:01:24.440Z,97.60
2023-03-23T23:03:52.897Z,97.70
2023-03-23T23:06:22.922Z,97.80
2023-03-23T23:08:51.869Z,97.90
2023-03-23T23:11:22.601Z,98.00
2023-03-23T23:13:51.648Z,98.00
2023-03-23T23:16:22.249Z,98.30
2023-03-23T23:18:50.625Z,98.20
2023-03-23T23:21:22.003Z,98.30
2023-03-23T23:23:52.140Z,98.30
2023-03-23T23:26:20.794Z,98.10
2023-03-23T23:28:49.886Z,98.10
2023-03-23T23:31:22.793Z,98.10
2023-03-23T23:33:51.536Z,98.10
2023-03-23T23:36:21.424Z,98.30
2023-03-23T23:38:51.684Z,98.30
2023-03-23T23:41:19.932Z,98.20
2023-03-23T23:43:48.167Z,98.40
2023-03-23T23:46:16.576Z,98.40
2023-03-23T23:48:46.614Z,98.40
2023-03-23T23:51:16.583Z,98.60
2023-03-23T23:53:46.221Z,98.60
2023-03-23T23:56:16.376Z,98.70
2023-03-23T23:58:45.906Z,98.80
